Time;durP1;ratioP1;P1;durP2;ratioP2;P2;SDS_P1;SDS_P2;PMS_P1;PMS_P2;Temp;Humidity;BMP_temperature;BMP_pressure;BME280_temperature;BME280_humidity;BME280_pressure;Samples;Min_cycle;Max_cycle;Signal;HPM_P1;HPM_P2
2022/11/16 00:02:09;;;;;;;43.10;18.58;;;;;;;4.93;98.32;94412.25;5049087;28;20571;-75
2022/11/16 00:04:36;;;;;;;35.05;18.33;;;;;;;5.08;97.70;94394.28;5063001;28;20207;-76
2022/11/16 00:07:03;;;;;;;40.00;20.95;;;;;;;5.20;97.80;94398.03;5060116;28;20230;-75
2022/11/16 00:09:30;;;;;;;36.88;20.15;;;;;;;5.29;97.05;94395.47;5055774;28;20199;-75
2022/11/16 00:12:01;;;;;;;31.30;17.77;;;;;;;4.94;97.88;94397.75;5058468;28;20210;-75
2022/11/16 00:14:29;;;;;;;38.88;18.35;;;;;;;5.21;97.50;94390.78;5062661;28;20204;-76
2022/11/16 00:16:57;;;;;;;38.03;18.45;;;;;;;5.16;97.85;94393.59;5061310;28;20272;-74
2022/11/16 00:19:25;;;;;;;39.55;19.80;;;;;;;5.36;96.99;94393.16;5056530;28;20613;-76
2022/11/16 00:21:52;;;;;;;42.53;20.92;;;;;;;5.34;96.78;94384.59;5056583;28;20200;-75
2022/11/16 00:24:20;;;;;;;35.30;18.95;;;;;;;5.38;97.01;94372.19;5063548;28;20207;-76
2022/11/16 00:26:48;;;;;;;47.60;21.90;;;;;;;5.39;97.22;94381.03;5062285;28;20238;-77
2022/11/16 00:29:19;;;;;;;48.33;20.30;;;;;;;5.26;97.46;94393.38;5050331;28;20215;-76
2022/11/16 00:31:46;;;;;;;45.85;22.10;;;;;;;5.45;97.23;94380.63;5063124;28;20229;-76
2022/11/16 00:34:13;;;;;;;50.72;22.45;;;;;;;5.28;97.92;94381.25;5055575;28;20666;-76
2022/11/16 00:36:40;;;;;;;43.08;18.80;;;;;;;5.32;98.23;94373.41;5055878;28;20223;-76
2022/11/16 00:39:07;;;;;;;38.65;20.70;;;;;;;5.30;98.34;94372.91;5056520;28;20203;-76
2022/11/16 00:41:33;;;;;;;44.00;19.23;;;;;;;5.34;98.13;94379.25;5055579;28;20195;-74
2022/11/16 00:44:00;;;;;;;45.08;21.45;;;;;;;5.19;97.96;94366.94;5056444;28;20569;-75
2022/11/16 00:46:28;;;;;;;38.22;20.13;;;;;;;5.09;97.90;94377.06;5055693;28;20737;-75
2022/11/16 00:48:55;;;;;;;39.78;19.40;;;;;;;4.87;98.23;94378.59;5061107;28;20199;-76
2022/11/16 00:51:22;;;;;;;45.30;21.42;;;;;;;4.91;98.48;94376.91;5063085;28;20207;-75
2022/11/16 00:53:48;;;;;;;34.35;17.73;;;;;;;4.74;98.67;94376.69;5057552;28;20741;-75
2022/11/16 00:56:15;;;;;;;51.10;21.45;;;;;;;4.60;99.40;94370.50;5053973;28;20852;-75
2022/11/16 00:58:42;;;;;;;47.35;21.20;;;;;;;4.76;99.55;94362.97;5058516;28;20609;-76
2022/11/16 01:01:11;;;;;;;40.55;19.63;;;;;;;4.72;98.90;94360.09;5070133;28;20209;-76
2022/11/16 01:03:39;;;;;;;47.70;20.38;;;;;;;4.82;99.78;94359.09;5060032;28;20211;-76
2022/11/16 01:06:08;;;;;;;50.42;20.90;;;;;;;4.82;99.42;94351.84;5062015;28;20548;-76
2022/11/16 01:08:35;;;;;;;42.97;18.70;;;;;;;4.72;98.99;94346.66;5059051;28;20195;-75
2022/11/16 01:13:43;;;;;;;49.63;21.67;;;;;;;4.67;99.50;94337.91;5055977;28;20667;-75
2022/11/16 01:16:10;;;;;;;40.65;19.63;;;;;;;4.74;99.40;94333.75;5068134;28;20210;-76
2022/11/16 01:18:37;;;;;;;43.80;21.50;;;;;;;4.71;99.53;94328.97;5069169;28;20203;-76
2022/11/16 01:21:14;;;;;;;43.15;21.17;;;;;;;4.77;99.25;94333.16;5050110;28;20203;-76
2022/11/16 01:23:41;;;;;;;37.65;17.20;;;;;;;4.72;99.16;94329.78;5063000;28;20198;-76
2022/11/16 01:26:07;;;;;;;39.80;19.77;;;;;;;4.49;99.38;94320.84;5048949;28;20684;-74
2022/11/16 01:28:34;;;;;;;36.75;19.52;;;;;;;4.43;99.36;94327.38;5062504;28;20280;-76
2022/11/16 01:31:01;;;;;;;59.22;22.90;;;;;;;4.03;99.95;94329.66;5055955;28;20199;-75
2022/11/16 01:33:29;;;;;;;36.47;21.73;;;;;;;3.87;100.00;94347.09;5054768;28;20692;-74
2022/11/16 01:35:55;;;;;;;54.72;24.15;;;;;;;3.80;100.00;94339.44;5064537;28;20246;-75
2022/11/16 01:38:23;;;;;;;33.60;19.25;;;;;;;3.83;100.00;94338.03;5065430;28;20244;-75
2022/11/16 01:40:50;;;;;;;44.60;20.02;;;;;;;3.93;100.00;94341.34;5060761;28;20684;-75
2022/11/16 01:43:19;;;;;;;46.65;20.58;;;;;;;4.08;100.00;94337.63;5058422;28;20281;-76
2022/11/16 01:45:46;;;;;;;41.20;20.33;;;;;;;4.20;100.00;94335.28;5063857;28;20234;-76
2022/11/16 01:48:16;;;;;;;40.35;21.77;;;;;;;4.37;100.00;94324.00;5064853;28;20207;-76
2022/11/16 01:50:44;;;;;;;38.60;19.85;;;;;;;4.43;98.93;94316.63;5061750;28;20234;-75
2022/11/16 01:53:12;;;;;;;39.90;18.85;;;;;;;4.47;99.08;94317.66;5058152;28;20226;-75
2022/11/16 01:55:42;;;;;;;44.33;21.40;;;;;;;4.43;98.93;94322.00;5062110;28;20613;-75
2022/11/16 01:58:14;;;;;;;36.50;16.65;;;;;;;4.46;97.95;94327.56;5065191;28;20195;-75
2022/11/16 02:00:40;;;;;;;54.88;21.48;;;;;;;4.12;98.50;94317.19;5058120;28;20686;-75
2022/11/16 02:03:07;;;;;;;54.20;23.20;;;;;;;3.93;99.16;94313.78;5051145;28;20734;-75
2022/11/16 02:05:51;;;;;;;34.83;18.83;;;;;;;3.88;99.48;94319.19;5051560;28;20208;-75
2022/11/16 02:11:47;;;;;;;40.03;21.75;;;;;;;3.68;100.00;94311.50;5057312;28;20337;-75
2022/11/16 02:14:26;;;;;;;41.22;19.10;;;;;;;3.80;100.00;94298.44;5068855;28;20367;-75
2022/11/16 02:17:01;;;;;;;42.42;19.80;;;;;;;3.90;100.00;94298.28;5063644;28;20187;-75
2022/11/16 02:19:50;;;;;;;36.72;18.02;;;;;;;3.86;100.00;94299.94;5058421;28;20244;-76
2022/11/16 02:22:32;;;;;;;46.38;23.45;;;;;;;3.96;100.00;94302.47;5058322;28;20712;-76
2022/11/16 02:25:05;;;;;;;50.22;22.33;;;;;;;4.00;100.00;94297.31;5060943;28;20196;-75
2022/11/16 02:28:05;;;;;;;42.42;20.35;;;;;;;3.79;100.00;94308.38;5064792;28;20756;-75
2022/11/16 02:30:34;;;;;;;43.72;21.63;;;;;;;3.76;100.00;94305.47;5068619;28;20194;-75
2022/11/16 02:33:04;;;;;;;39.50;20.50;;;;;;;3.81;100.00;94298.16;5060812;28;20625;-75
2022/11/16 02:35:36;;;;;;;39.40;18.33;;;;;;;3.78;100.00;94303.31;5051837;28;20199;-75
2022/11/16 02:38:08;;;;;;;42.88;20.92;;;;;;;3.50;100.00;94299.72;5051412;28;20224;-75
2022/11/16 02:40:39;;;;;;;32.28;16.85;;;;;;;3.43;100.00;94294.72;5064731;28;20196;-75
2022/11/16 02:43:09;;;;;;;43.28;21.33;;;;;;;3.20;100.00;94290.25;5051837;28;20196;-76
2022/11/16 02:45:40;;;;;;;39.17;18.17;;;;;;;3.08;100.00;94308.63;5063135;28;20215;-75
2022/11/16 02:48:13;;;;;;;42.97;20.98;;;;;;;2.92;100.00;94299.19;5064819;28;20226;-75
2022/11/16 02:50:40;;;;;;;42.88;18.55;;;;;;;2.94;100.00;94289.00;5060180;28;20700;-75
2022/11/16 02:53:07;;;;;;;43.28;20.65;;;;;;;2.80;100.00;94303.09;5055286;28;20203;-75
2022/11/16 02:55:36;;;;;;;41.00;18.50;;;;;;;2.63;100.00;94297.41;5060634;28;20202;-76
2022/11/16 02:58:05;;;;;;;36.97;17.92;;;;;;;2.54;100.00;94301.81;5057718;28;20219;-75
2022/11/16 03:00:42;;;;;;;32.78;14.63;;;;;;;2.54;100.00;94287.66;5060961;28;20265;-75
2022/11/16 03:03:18;;;;;;;40.38;18.85;;;;;;;2.65;100.00;94294.47;5064273;28;20257;-75
2022/11/16 03:05:50;;;;;;;33.38;16.50;;;;;;;2.59;100.00;94296.41;5064215;28;20190;-75
2022/11/16 03:08:22;;;;;;;39.35;16.10;;;;;;;2.68;100.00;94293.91;5058050;28;20273;-75
2022/11/16 03:13:40;;;;;;;86.30;40.92;;;;;;;2.85;100.00;94289.66;5070996;28;20198;-75
2022/11/16 03:16:14;;;;;;;31.38;14.95;;;;;;;2.76;100.00;94286.03;5057463;28;20602;-76
2022/11/16 03:18:43;;;;;;;36.35;15.30;;;;;;;2.68;100.00;94272.50;5058687;28;20270;-76
2022/11/16 03:21:16;;;;;;;37.30;16.58;;;;;;;2.60;100.00;94268.56;5056901;28;20573;-76
2022/11/16 03:23:44;;;;;;;32.80;14.63;;;;;;;2.76;100.00;94266.50;5069563;28;20587;-74
2022/11/16 03:26:18;;;;;;;33.63;15.90;;;;;;;2.65;100.00;94273.88;5058231;28;20669;-75
2022/11/16 03:28:52;;;;;;;27.52;14.43;;;;;;;2.64;100.00;94272.28;5056546;28;20203;-75
2022/11/16 03:31:27;;;;;;;23.77;12.40;;;;;;;2.57;100.00;94277.19;5062314;28;20704;-75
2022/11/16 03:33:56;;;;;;;20.95;10.60;;;;;;;2.79;100.00;94269.41;5050508;28;20764;-74
2022/11/16 03:36:27;;;;;;;22.77;11.95;;;;;;;2.99;100.00;94263.00;5062296;28;20599;-75
2022/11/16 03:38:58;;;;;;;26.38;11.05;;;;;;;3.10;100.00;94277.03;5056752;28;20213;-75
2022/11/16 03:41:28;;;;;;;23.95;13.23;;;;;;;3.21;100.00;94265.09;5056126;28;20329;-75
2022/11/16 03:43:56;;;;;;;31.48;13.60;;;;;;;3.51;100.00;94269.97;5050209;28;20191;-75
2022/11/16 03:46:25;;;;;;;23.92;12.60;;;;;;;3.57;100.00;94268.78;5049975;28;20203;-76
2022/11/16 03:48:56;;;;;;;25.92;12.65;;;;;;;3.37;100.00;94279.84;5050131;28;20199;-76
2022/11/16 03:51:23;;;;;;;26.08;12.70;;;;;;;3.43;100.00;94283.22;5051684;28;20196;-76
2022/11/16 03:53:50;;;;;;;22.33;12.25;;;;;;;3.42;100.00;94271.72;5061388;28;20573;-76
2022/11/16 03:56:17;;;;;;;27.73;12.85;;;;;;;3.50;100.00;94272.94;5062139;28;20668;-75
2022/11/16 03:58:43;;;;;;;40.42;15.57;;;;;;;3.67;100.00;94261.72;5049858;28;20222;-75
2022/11/16 04:01:10;;;;;;;37.67;15.63;;;;;;;3.75;100.00;94259.13;5062929;28;20207;-75
2022/11/16 04:03:38;;;;;;;34.20;14.85;;;;;;;3.86;100.00;94260.56;5058718;28;20210;-76
2022/11/16 04:25:40;;;;;;;31.52;14.70;;;;;;;3.99;99.67;94228.72;5052419;28;20219;-76
2022/11/16 04:28:12;;;;;;;26.42;13.75;;;;;;;3.99;99.98;94229.50;5060069;28;20731;-76
2022/11/16 04:38:55;;;;;;;25.08;14.38;;;;;;;3.65;100.00;94226.38;5055838;28;20201;-75
2022/11/16 04:44:06;;;;;;;30.65;13.50;;;;;;;3.92;100.00;94221.09;5048756;28;20281;-75
2022/11/16 04:49:17;;;;;;;26.17;11.63;;;;;;;4.06;99.68;94227.25;5049049;28;20278;-76
2022/11/16 04:51:45;;;;;;;25.30;13.25;;;;;;;4.08;99.49;94230.44;5054046;28;20230;-76
2022/11/16 04:54:12;;;;;;;30.02;11.82;;;;;;;3.95;99.43;94225.84;5057794;28;20299;-76
2022/11/16 04:56:39;;;;;;;21.50;12.32;;;;;;;4.11;99.19;94229.81;5061379;28;20269;-77
2022/11/16 04:59:05;;;;;;;27.67;13.30;;;;;;;4.10;99.09;94216.75;5057395;28;20198;-73
2022/11/16 05:04:16;;;;;;;35.42;17.73;;;;;;;4.28;99.94;94211.28;5058108;28;20211;-75
2022/11/16 05:06:44;;;;;;;33.60;14.10;;;;;;;4.38;99.60;94212.16;5057477;28;20203;-77
2022/11/16 05:09:11;;;;;;;21.75;11.30;;;;;;;4.31;99.27;94223.28;5059140;28;20196;-77
2022/11/16 05:11:38;;;;;;;30.52;12.93;;;;;;;4.19;98.99;94221.13;5062719;28;20250;-77
2022/11/16 05:14:05;;;;;;;28.98;13.98;;;;;;;4.26;99.43;94220.69;5055845;28;20195;-77
2022/11/16 05:16:31;;;;;;;26.23;13.93;;;;;;;4.29;99.32;94215.53;5063788;28;20309;-77
2022/11/16 05:21:43;;;;;;;23.70;10.95;;;;;;;4.45;99.68;94209.88;5051457;28;20206;-76
2022/11/16 05:26:55;;;;;;;45.30;13.98;;;;;;;4.76;97.63;94204.69;5051819;28;20218;-78
2022/11/16 05:29:22;;;;;;;34.67;14.73;;;;;;;4.76;96.74;94205.47;5058694;28;20207;-78
2022/11/16 05:31:49;;;;;;;35.85;16.92;;;;;;;4.73;97.19;94207.97;5057350;28;20577;-78
2022/11/16 05:34:16;;;;;;;35.05;17.38;;;;;;;4.95;97.05;94211.47;5052172;28;20208;-77
2022/11/16 05:36:42;;;;;;;31.52;15.82;;;;;;;4.84;96.64;94212.81;5051927;28;20780;-77
2022/11/16 05:39:11;;;;;;;47.30;16.73;;;;;;;4.57;97.36;94208.28;5051621;28;20268;-77
2022/11/16 05:41:37;;;;;;;44.70;21.63;;;;;;;4.51;98.06;94211.38;5051974;28;20344;-77
2022/11/16 05:44:04;;;;;;;43.08;19.10;;;;;;;4.36;99.27;94206.31;5051897;28;20674;-77
2022/11/16 05:46:31;;;;;;;35.50;16.90;;;;;;;4.65;99.43;94204.09;5064926;28;20616;-78
2022/11/16 05:48:58;;;;;;;29.38;15.55;;;;;;;4.33;98.58;94202.34;5051810;28;20235;-78
2022/11/16 05:51:24;;;;;;;35.28;16.88;;;;;;;4.40;98.60;94215.34;5067506;28;20268;-77
2022/11/16 05:53:51;;;;;;;30.48;15.63;;;;;;;4.50;99.30;94209.78;5072129;28;20608;-77
2022/11/16 05:56:19;;;;;;;33.10;14.30;;;;;;;4.54;99.43;94208.06;5072226;28;20676;-77
2022/11/16 05:58:49;;;;;;;31.83;13.82;;;;;;;4.64;99.29;94211.38;5072008;28;20260;-77
2022/11/16 06:01:15;;;;;;;36.35;17.55;;;;;;;4.57;98.53;94194.06;5055155;28;20746;-77
2022/11/16 06:03:42;;;;;;;43.08;15.43;;;;;;;4.54;99.24;94211.56;5052006;28;20713;-77
2022/11/16 06:06:09;;;;;;;37.13;15.77;;;;;;;4.45;99.58;94212.56;5052419;28;20208;-77
2022/11/16 06:08:36;;;;;;;28.67;15.02;;;;;;;4.61;99.06;94227.25;5052070;28;20277;-77
2022/11/16 06:11:04;;;;;;;25.83;12.13;;;;;;;4.49;98.70;94213.56;5055597;28;20241;-77
2022/11/16 06:13:33;;;;;;;34.53;14.70;;;;;;;4.54;99.01;94203.50;5061258;28;20206;-77
2022/11/16 06:16:00;;;;;;;35.13;16.20;;;;;;;4.53;98.99;94219.91;5051286;28;20257;-76
2022/11/16 06:18:27;;;;;;;29.35;14.05;;;;;;;4.49;100.00;94214.34;5062428;28;20654;-77
2022/11/16 06:20:54;;;;;;;28.92;13.82;;;;;;;4.71;100.00;94219.00;5052806;28;20207;-78
2022/11/16 06:23:21;;;;;;;33.72;15.65;;;;;;;4.93;99.97;94212.88;5051192;28;20200;-77
2022/11/16 06:25:53;;;;;;;37.22;16.38;;;;;;;5.01;100.00;94214.84;5064946;28;20208;-77
2022/11/16 06:28:20;;;;;;;33.03;14.00;;;;;;;5.18;99.32;94208.84;5051790;28;20603;-78
2022/11/16 06:30:49;;;;;;;39.08;18.98;;;;;;;5.20;98.89;94209.31;5051341;28;20208;-78
2022/11/16 06:33:18;;;;;;;52.88;17.08;;;;;;;5.52;97.76;94205.59;5051049;28;20232;-78
2022/11/16 06:35:45;;;;;;;42.60;19.65;;;;;;;5.59;96.70;94209.47;5064680;28;20196;-79
2022/11/16 06:38:17;;;;;;;40.60;19.23;;;;;;;5.69;95.67;94214.59;5051808;28;20200;-78
2022/11/16 06:40:44;;;;;;;36.00;17.40;;;;;;;5.74;95.07;94204.81;5059175;28;20199;-76
2022/11/16 06:43:11;;;;;;;35.83;15.30;;;;;;;5.76;95.41;94214.13;5058305;28;20211;-78
2022/11/16 06:45:43;;;;;;;28.55;14.00;;;;;;;5.33;95.33;94200.41;5064013;28;20207;-78
2022/11/16 06:48:11;;;;;;;29.17;16.75;;;;;;;5.15;96.50;94209.44;5064525;28;20596;-76
2022/11/16 06:50:38;;;;;;;29.15;15.93;;;;;;;5.21;96.67;94208.22;5060253;28;20195;-79
2022/11/16 06:53:05;;;;;;;39.03;15.80;;;;;;;5.24;96.81;94204.94;5057705;28;20250;-77
2022/11/16 06:55:32;;;;;;;38.15;15.48;;;;;;;5.60;95.91;94205.66;5062161;28;20253;-76
2022/11/16 06:57:59;;;;;;;35.75;14.85;;;;;;;5.64;95.32;94195.09;5064123;28;20256;-77
2022/11/16 07:00:27;;;;;;;30.55;14.25;;;;;;;5.44;95.54;94212.53;5058303;28;20195;-76
2022/11/16 07:02:54;;;;;;;33.17;15.65;;;;;;;5.55;95.29;94203.09;5053069;28;20328;-77
2022/11/16 07:05:22;;;;;;;34.60;16.70;;;;;;;5.52;95.85;94201.03;5051454;28;20617;-77
2022/11/16 07:07:54;;;;;;;30.55;14.02;;;;;;;5.65;96.25;94202.84;5064165;28;20231;-77
2022/11/16 07:10:20;;;;;;;35.25;15.88;;;;;;;5.73;95.91;94198.66;5061518;28;20248;-77
2022/11/16 07:12:47;;;;;;;36.83;17.80;;;;;;;6.07;94.38;94192.66;5061251;28;20862;-76
2022/11/16 07:15:14;;;;;;;46.00;19.58;;;;;;;6.00;93.62;94193.13;5065899;28;20206;-77
2022/11/16 07:17:41;;;;;;;34.13;15.45;;;;;;;6.19;93.15;94195.56;5058470;28;20195;-77
2022/11/16 07:20:08;;;;;;;36.75;17.73;;;;;;;6.18;93.41;94199.34;5058791;28;20202;-76
2022/11/16 07:22:36;;;;;;;38.72;16.20;;;;;;;6.14;93.40;94193.03;5055529;28;20199;-77
2022/11/16 07:25:03;;;;;;;25.85;13.48;;;;;;;6.37;93.46;94191.84;5060288;28;20252;-78
2022/11/16 07:27:30;;;;;;;33.00;16.27;;;;;;;6.46;92.67;94196.44;5055214;28;20227;-77
2022/11/16 07:29:57;;;;;;;37.70;16.92;;;;;;;6.80;91.50;94193.84;5058824;28;20253;-76
2022/11/16 07:32:24;;;;;;;32.75;16.30;;;;;;;6.94;90.86;94191.81;5049484;28;20654;-79
2022/11/16 07:34:50;;;;;;;44.80;19.65;;;;;;;7.10;90.14;94186.78;5061704;28;20596;-77
2022/11/16 07:37:17;;;;;;;46.67;20.20;;;;;;;7.44;89.64;94185.97;5051689;28;20254;-77
2022/11/16 07:39:45;;;;;;;48.20;16.08;;;;;;;7.48;88.51;94176.13;5050251;28;20211;-77
2022/11/16 07:42:12;;;;;;;48.95;17.88;;;;;;;7.67;87.87;94173.88;5063433;28;20203;-77
2022/11/16 07:44:39;;;;;;;41.95;19.00;;;;;;;7.53;88.03;94178.66;5049983;28;20265;-77
2022/11/16 07:47:06;;;;;;;28.65;15.52;;;;;;;7.72;88.81;94172.91;5049390;28;20215;-77
2022/11/16 07:49:33;;;;;;;33.08;15.00;;;;;;;7.96;87.15;94164.28;5049424;28;20296;-76
2022/11/16 07:51:59;;;;;;;56.85;20.27;;;;;;;8.31;86.24;94157.66;5069903;28;20684;-78
2022/11/16 07:54:26;;;;;;;50.03;18.63;;;;;;;8.00;87.39;94159.84;5069693;28;20202;-77
2022/11/16 07:56:54;;;;;;;38.95;16.15;;;;;;;8.32;86.50;94161.97;5068975;28;20204;-77
2022/11/16 07:59:21;;;;;;;41.33;17.10;;;;;;;8.51;86.14;94156.94;5069131;28;20606;-77
2022/11/16 08:01:48;;;;;;;41.40;16.33;;;;;;;8.69;85.35;94160.34;5069894;28;20203;-78
2022/11/16 08:04:16;;;;;;;48.67;17.90;;;;;;;8.45;86.01;94162.88;5068537;28;20214;-77
2022/11/16 08:06:43;;;;;;;35.15;15.68;;;;;;;8.10;85.90;94170.28;5070066;28;20234;-77
2022/11/16 08:09:10;;;;;;;32.80;13.65;;;;;;;7.65;87.93;94165.34;5069300;28;20234;-77
2022/11/16 08:11:40;;;;;;;30.52;12.35;;;;;;;7.53;89.78;94162.47;5069801;28;20210;-75
2022/11/16 08:14:08;;;;;;;42.85;17.55;;;;;;;7.55;89.67;94154.88;5054454;28;20195;-76
2022/11/16 08:16:35;;;;;;;40.97;15.23;;;;;;;7.54;90.08;94149.78;5049534;28;20235;-77
2022/11/16 08:19:02;;;;;;;33.05;14.70;;;;;;;7.45;89.80;94153.31;5049056;28;20211;-76
2022/11/16 08:21:29;;;;;;;39.45;16.80;;;;;;;7.53;89.49;94140.13;5049263;28;20208;-76
2022/11/16 08:23:56;;;;;;;29.23;13.35;;;;;;;7.61;89.76;94142.81;5049608;28;20250;-76
2022/11/16 08:26:22;;;;;;;32.15;14.73;;;;;;;7.68;89.91;94139.63;5048379;28;20219;-77
2022/11/16 08:28:52;;;;;;;38.78;13.93;;;;;;;7.81;89.63;94133.25;5061282;28;20231;-75
2022/11/16 08:31:22;;;;;;;33.08;15.25;;;;;;;7.93;89.24;94137.94;5058767;28;20264;-77
2022/11/16 08:33:50;;;;;;;41.63;16.05;;;;;;;7.85;89.76;94134.97;5052955;28;20210;-77
2022/11/16 08:36:17;;;;;;;46.78;14.70;;;;;;;7.69;90.99;94131.22;5049218;28;20224;-76
2022/11/16 08:38:44;;;;;;;42.35;19.95;;;;;;;7.48;91.95;94133.03;5052659;28;20203;-76
2022/11/16 08:41:11;;;;;;;40.20;13.23;;;;;;;7.94;91.11;94128.75;5059612;28;20207;-77
2022/11/16 08:43:39;;;;;;;26.98;11.68;;;;;;;8.19;89.79;94128.69;5048838;28;20265;-76
2022/11/16 08:46:06;;;;;;;32.47;14.45;;;;;;;8.08;90.32;94118.53;5049431;28;20257;-76
2022/11/16 08:48:34;;;;;;;35.50;12.27;;;;;;;8.12;90.05;94127.59;5048878;28;20581;-77
2022/11/16 08:51:06;;;;;;;33.97;12.88;;;;;;;8.20;90.29;94121.34;5060916;28;20641;-76
2022/11/16 08:53:32;;;;;;;23.02;9.68;;;;;;;8.28;89.62;94123.22;5069172;28;20203;-77
2022/11/16 08:56:03;;;;;;;25.83;9.85;;;;;;;8.48;88.80;94114.41;5056648;28;20246;-77
2022/11/16 08:58:30;;;;;;;32.53;15.45;;;;;;;8.70;87.03;94123.34;5049135;28;20207;-77
2022/11/16 09:00:57;;;;;;;28.35;13.52;;;;;;;8.96;86.04;94115.84;5049504;28;20211;-76
2022/11/16 09:03:23;;;;;;;26.20;12.02;;;;;;;9.07;86.17;94111.63;5049454;28;20204;-77
2022/11/16 09:05:52;;;;;;;26.10;11.90;;;;;;;9.12;85.06;94118.75;5048931;28;20208;-77
2022/11/16 09:08:19;;;;;;;35.45;12.30;;;;;;;9.12;84.74;94119.53;5049083;28;20232;-76
2022/11/16 09:10:45;;;;;;;46.75;17.05;;;;;;;8.93;84.90;94116.50;5049362;28;20273;-76
2022/11/16 09:13:12;;;;;;;37.40;15.75;;;;;;;9.02;85.13;94109.09;5056787;28;20557;-78
2022/11/16 09:15:39;;;;;;;24.88;12.05;;;;;;;9.33;84.85;94107.91;5054005;28;20199;-76
2022/11/16 09:18:06;;;;;;;42.40;16.23;;;;;;;9.87;82.53;94095.88;5048278;28;20212;-75
2022/11/16 09:20:32;;;;;;;34.75;15.55;;;;;;;9.61;82.61;94087.25;5048096;28;20209;-76
2022/11/16 09:23:00;;;;;;;33.00;14.27;;;;;;;10.04;81.79;94086.78;5048663;28;20686;-77
2022/11/16 09:25:27;;;;;;;31.48;12.85;;;;;;;9.54;82.31;94078.91;5062136;28;20593;-76
2022/11/16 09:27:55;;;;;;;27.13;13.20;;;;;;;9.48;83.23;94074.84;5056798;28;20314;-76
2022/11/16 09:30:22;;;;;;;29.02;14.45;;;;;;;9.35;84.30;94078.63;5053647;28;20295;-76
2022/11/16 09:32:49;;;;;;;35.05;12.32;;;;;;;9.26;84.56;94066.00;5049111;28;20239;-76
2022/11/16 09:35:16;;;;;;;27.02;11.73;;;;;;;9.69;83.76;94066.69;5062063;28;20617;-76
2022/11/16 09:37:43;;;;;;;34.38;13.15;;;;;;;9.96;82.23;94056.00;5048581;28;20609;-76
2022/11/16 09:40:12;;;;;;;30.95;11.73;;;;;;;9.51;83.43;94044.44;5062678;28;20437;-75
2022/11/16 09:42:50;;;;;;;24.77;11.40;;;;;;;8.99;85.07;94039.56;5048755;28;20262;-76
2022/11/16 09:45:24;;;;;;;27.27;11.40;;;;;;;9.24;84.69;94030.41;5048266;28;20669;-77
2022/11/16 09:47:56;;;;;;;22.60;10.32;;;;;;;8.90;86.12;94044.22;5049169;28;20214;-76
2022/11/16 09:50:42;;;;;;;26.48;12.32;;;;;;;8.74;86.70;94041.34;5048095;28;20211;-77
2022/11/16 09:53:26;;;;;;;23.67;10.93;;;;;;;8.67;87.42;94043.78;5048394;28;20223;-77
2022/11/16 09:55:58;;;;;;;29.77;11.52;;;;;;;8.69;87.74;94035.34;5050191;28;20285;-74
2022/11/16 09:58:30;;;;;;;25.85;11.38;;;;;;;8.40;89.05;94028.91;5051753;28;20211;-76
2022/11/16 10:01:04;;;;;;;22.50;10.43;;;;;;;8.37;89.44;94029.53;5051391;28;20204;-75
2022/11/16 10:03:35;;;;;;;26.52;11.63;;;;;;;8.26;90.18;94030.22;5056544;28;20199;-76
2022/11/16 10:06:06;;;;;;;26.50;12.55;;;;;;;8.24;90.28;94019.75;5051782;28;20211;-77
2022/11/16 10:08:45;;;;;;;26.98;12.13;;;;;;;8.02;91.15;94017.38;5061231;28;20218;-76
2022/11/16 10:11:45;;;;;;;27.20;10.60;;;;;;;8.03;91.75;94006.25;5054043;28;20686;-76
2022/11/16 10:14:47;;;;;;;21.52;10.27;;;;;;;8.04;92.57;94001.66;5022249;28;20203;-76
2022/11/16 10:17:25;;;;;;;21.25;9.68;;;;;;;8.26;91.53;93990.56;5047130;28;20207;-75
2022/11/16 10:19:54;;;;;;;31.40;13.43;;;;;;;8.62;90.55;93994.59;5062438;28;20227;-76
2022/11/16 10:22:43;;;;;;;36.72;15.85;;;;;;;8.55;90.04;93982.44;5051548;28;20636;-76
2022/11/16 10:25:16;;;;;;;31.10;10.57;;;;;;;8.64;89.40;93974.25;5051785;28;20633;-75
2022/11/16 10:28:01;;;;;;;31.05;12.90;;;;;;;8.60;89.51;93977.94;5051561;28;20237;-75
2022/11/16 10:30:28;;;;;;;39.63;16.23;;;;;;;8.78;88.89;93968.56;5051565;28;20212;-76
2022/11/16 10:33:01;;;;;;;26.23;11.77;;;;;;;8.89;88.86;93962.41;5060674;28;20296;-75
2022/11/16 10:35:32;;;;;;;31.85;14.02;;;;;;;8.87;88.70;93961.19;5054321;28;20274;-75
2022/11/16 10:38:02;;;;;;;30.50;14.45;;;;;;;8.67;89.02;93962.78;5051460;28;20258;-77
2022/11/16 10:40:35;;;;;;;33.17;15.15;;;;;;;8.57;89.72;93959.72;5064675;28;20266;-76
2022/11/16 10:43:14;;;;;;;26.77;13.40;;;;;;;8.70;89.80;93955.94;5064108;28;20221;-75
2022/11/16 10:45:49;;;;;;;28.45;12.27;;;;;;;8.95;89.18;93960.28;5051334;28;20234;-76
2022/11/16 10:48:29;;;;;;;28.13;12.43;;;;;;;9.14;87.77;93947.06;5064319;28;20203;-76
2022/11/16 10:50:56;;;;;;;30.83;12.90;;;;;;;9.23;86.99;93953.16;5051161;28;20261;-75
2022/11/16 10:53:28;;;;;;;33.65;14.85;;;;;;;9.36;86.91;93948.56;5055187;28;20721;-77
2022/11/16 10:56:09;;;;;;;31.17;13.63;;;;;;;9.24;86.35;93943.94;5058320;28;20298;-77
2022/11/16 10:58:52;;;;;;;35.92;14.68;;;;;;;9.33;86.37;93945.72;5051262;28;20214;-76
2022/11/16 11:01:31;;;;;;;31.15;13.85;;;;;;;9.34;86.39;93936.50;5050668;28;20204;-76
2022/11/16 11:04:18;;;;;;;25.95;11.50;;;;;;;9.31;86.39;93932.56;5062526;28;20203;-76
2022/11/16 11:06:46;;;;;;;21.10;11.35;;;;;;;9.16;87.29;93923.19;5050697;28;20289;-76
2022/11/16 11:09:23;;;;;;;30.42;13.43;;;;;;;9.51;86.29;93920.88;5050906;28;20233;-75
2022/11/16 11:14:57;;;;;;;25.02;11.82;;;;;;;9.86;84.47;93923.88;5050920;28;20206;-76
2022/11/16 11:17:24;;;;;;;27.05;12.02;;;;;;;10.16;83.56;93907.38;5051159;28;20716;-76
2022/11/16 11:19:57;;;;;;;18.27;9.90;;;;;;;10.20;82.79;93892.06;5050759;28;20571;-77
2022/11/16 11:22:24;;;;;;;26.95;11.00;;;;;;;10.24;81.95;93887.56;5053629;28;20490;-76
2022/11/16 11:24:51;;;;;;;22.50;10.27;;;;;;;10.42;81.98;93877.19;5059921;28;20630;-77
2022/11/16 11:27:23;;;;;;;23.83;10.38;;;;;;;10.64;81.19;93879.38;5050323;28;20203;-75
2022/11/16 11:29:54;;;;;;;26.25;11.80;;;;;;;10.36;81.38;93862.34;5062056;28;20250;-76
2022/11/16 11:32:23;;;;;;;23.30;10.25;;;;;;;10.63;81.03;93867.75;5050284;28;20275;-77
2022/11/16 11:34:52;;;;;;;26.35;12.73;;;;;;;10.67;81.42;93874.03;5049785;28;20262;-76
2022/11/16 11:37:22;;;;;;;26.50;12.82;;;;;;;11.06;79.66;93868.09;5050040;28;20215;-76
2022/11/16 11:40:05;;;;;;;27.20;14.10;;;;;;;11.48;78.22;93869.09;5049928;28;20254;-76
2022/11/16 11:42:32;;;;;;;27.08;12.45;;;;;;;11.66;77.56;93858.69;5050336;28;20207;-77
2022/11/16 11:45:06;;;;;;;24.42;10.82;;;;;;;11.76;77.05;93858.16;5050211;28;20203;-75
2022/11/16 11:47:48;;;;;;;24.10;13.05;;;;;;;11.37;77.67;93860.72;5050553;28;20207;-75
2022/11/16 11:50:19;;;;;;;27.25;12.23;;;;;;;11.39;78.32;93852.25;5055225;28;20215;-77
2022/11/16 11:53:05;;;;;;;28.23;12.63;;;;;;;11.00;79.42;93848.56;5069449;28;20253;-76
2022/11/16 11:55:31;;;;;;;25.10;11.88;;;;;;;11.16;79.30;93835.81;5060973;28;20200;-76
2022/11/16 11:58:00;;;;;;;25.08;12.38;;;;;;;11.13;79.50;93833.00;5051879;28;20230;-76
2022/11/16 12:00:37;;;;;;;25.65;11.25;;;;;;;11.29;79.69;93829.16;5060230;28;20218;-76
2022/11/16 12:03:42;;;;;;;28.85;11.82;;;;;;;11.46;78.69;93822.59;5049857;28;20257;-75
2022/11/16 12:06:19;;;;;;;24.00;11.55;;;;;;;11.76;77.56;93820.16;5037528;28;20214;-76
2022/11/16 12:09:03;;;;;;;29.40;14.23;;;;;;;11.96;76.84;93813.63;5069750;28;20691;-76
2022/11/16 12:11:42;;;;;;;28.55;13.05;;;;;;;12.28;75.75;93813.50;5049319;28;20570;-75
2022/11/16 12:14:29;;;;;;;29.30;13.05;;;;;;;12.16;75.35;93810.94;5049496;28;20207;-77
2022/11/16 12:17:04;;;;;;;22.58;11.63;;;;;;;12.00;76.10;93821.88;5049464;28;20211;-77
2022/11/16 12:19:47;;;;;;;31.42;12.48;;;;;;;11.86;76.67;93808.78;5062767;28;20269;-75
2022/11/16 12:22:42;;;;;;;32.88;14.43;;;;;;;11.47;77.86;93807.09;5062624;28;20195;-76
2022/11/16 12:25:21;;;;;;;31.25;11.50;;;;;;;11.52;78.13;93801.38;5049337;28;20203;-76
2022/11/16 12:28:04;;;;;;;26.15;11.25;;;;;;;11.54;77.96;93785.56;5048973;28;20209;-76
2022/11/16 12:30:38;;;;;;;29.77;13.05;;;;;;;11.53;78.06;93794.84;5059179;28;20298;-77